sensor_id;sensor_type;location;lat;lon;timestamp;pressure;altitude;pressure_sealevel;temperature;humidity
47763;BME280;33526;42.690;23.322;2023-08-31T00:00:26;94557.91;;;21.06;55.81
47763;BME280;33526;42.690;23.322;2023-08-31T00:02:52;94555.41;;;21.02;56.21
47763;BME280;33526;42.690;23.322;2023-08-31T00:05:18;94559.81;;;20.90;56.56
47763;BME280;33526;42.690;23.322;2023-08-31T00:07:43;94567.78;;;20.91;56.35
47763;BME280;33526;42.690;23.322;2023-08-31T00:10:08;94559.06;;;20.89;56.67
47763;BME280;33526;42.690;23.322;2023-08-31T00:12:36;94560.56;;;20.90;56.93
47763;BME280;33526;42.690;23.322;2023-08-31T00:15:02;94558.63;;;20.85;56.85
47763;BME280;33526;42.690;23.322;2023-08-31T00:17:29;94567.16;;;20.72;57.13
47763;BME280;33526;42.690;23.322;2023-08-31T00:19:55;94564.13;;;20.70;57.45
47763;BME280;33526;42.690;23.322;2023-08-31T00:22:20;94558.09;;;20.60;57.52
47763;BME280;33526;42.690;23.322;2023-08-31T00:24:46;94551.88;;;20.61;57.69
47763;BME280;33526;42.690;23.322;2023-08-31T00:27:11;94559.09;;;20.62;58.11
47763;BME280;33526;42.690;23.322;2023-08-31T00:29:40;94564.13;;;20.70;57.44
47763;BME280;33526;42.690;23.322;2023-08-31T00:32:05;94562.81;;;20.71;57.21
47763;BME280;33526;42.690;23.322;2023-08-31T00:34:30;94570.22;;;20.74;57.47
47763;BME280;33526;42.690;23.322;2023-08-31T00:36:56;94571.34;;;20.71;57.54
47763;BME280;33526;42.690;23.322;2023-08-31T00:39:21;94572.84;;;20.72;57.50
47763;BME280;33526;42.690;23.322;2023-08-31T00:41:46;94579.84;;;20.71;57.53
47763;BME280;33526;42.690;23.322;2023-08-31T00:44:12;94575.69;;;20.72;57.42
47763;BME280;33526;42.690;23.322;2023-08-31T00:46:37;94578.31;;;20.70;57.80
47763;BME280;33526;42.690;23.322;2023-08-31T00:49:03;94588.38;;;20.71;57.87
47763;BME280;33526;42.690;23.322;2023-08-31T00:51:29;94583.56;;;20.66;58.04
47763;BME280;33526;42.690;23.322;2023-08-31T00:53:54;94587.25;;;20.60;58.08
47763;BME280;33526;42.690;23.322;2023-08-31T00:56:20;94577.44;;;20.61;58.10
47763;BME280;33526;42.690;23.322;2023-08-31T00:58:46;94590.75;;;20.40;59.07
47763;BME280;33526;42.690;23.322;2023-08-31T01:01:36;94582.88;;;20.33;59.74
47763;BME280;33526;42.690;23.322;2023-08-31T01:06:35;94587.34;;;20.01;61.25
47763;BME280;33526;42.690;23.322;2023-08-31T01:14:11;94585.66;;;20.38;59.78
47763;BME280;33526;42.690;23.322;2023-08-31T01:16:36;94584.19;;;20.45;59.48
47763;BME280;33526;42.690;23.322;2023-08-31T01:19:05;94593.50;;;20.46;59.62
47763;BME280;33526;42.690;23.322;2023-08-31T01:21:33;94595.78;;;20.47;59.54
47763;BME280;33526;42.690;23.322;2023-08-31T01:24:02;94603.00;;;20.48;59.47
47763;BME280;33526;42.690;23.322;2023-08-31T01:26:29;94601.13;;;20.51;59.22
47763;BME280;33526;42.690;23.322;2023-08-31T01:28:54;94590.53;;;20.51;59.73
47763;BME280;33526;42.690;23.322;2023-08-31T01:31:20;94591.19;;;20.57;59.65
47763;BME280;33526;42.690;23.322;2023-08-31T01:33:45;94586.19;;;20.64;58.87
47763;BME280;33526;42.690;23.322;2023-08-31T01:36:17;94584.88;;;20.65;58.95
47763;BME280;33526;42.690;23.322;2023-08-31T01:38:44;94595.78;;;20.60;59.26
47763;BME280;33526;42.690;23.322;2023-08-31T01:41:12;94581.38;;;20.58;58.96
47763;BME280;33526;42.690;23.322;2023-08-31T01:43:40;94593.81;;;20.55;58.88
47763;BME280;33526;42.690;23.322;2023-08-31T01:46:06;94597.84;;;20.47;59.29
47763;BME280;33526;42.690;23.322;2023-08-31T01:48:32;94595.47;;;20.37;59.81
47763;BME280;33526;42.690;23.322;2023-08-31T01:51:02;94596.44;;;20.40;59.40
47763;BME280;33526;42.690;23.322;2023-08-31T01:53:28;94597.31;;;20.35;59.62
47763;BME280;33526;42.690;23.322;2023-08-31T01:55:53;94592.72;;;20.32;60.24
47763;BME280;33526;42.690;23.322;2023-08-31T01:58:18;94596.88;;;20.17;60.87
47763;BME280;33526;42.690;23.322;2023-08-31T02:00:44;94597.09;;;20.19;61.01
47763;BME280;33526;42.690;23.322;2023-08-31T02:03:09;94609.84;;;19.99;62.08
47763;BME280;33526;42.690;23.322;2023-08-31T02:05:36;94605.47;;;19.98;62.20
47763;BME280;33526;42.690;23.322;2023-08-31T02:08:01;94608.81;;;19.83;62.77
47763;BME280;33526;42.690;23.322;2023-08-31T02:10:26;94603.69;;;19.82;63.17
47763;BME280;33526;42.690;23.322;2023-08-31T02:12:52;94626.16;;;19.80;63.62
47763;BME280;33526;42.690;23.322;2023-08-31T02:15:17;94615.34;;;19.78;63.29
47763;BME280;33526;42.690;23.322;2023-08-31T02:17:42;94619.50;;;19.77;63.37
47763;BME280;33526;42.690;23.322;2023-08-31T02:20:08;94612.06;;;19.74;63.44
47763;BME280;33526;42.690;23.322;2023-08-31T02:22:34;94610.53;;;19.73;63.36
47763;BME280;33526;42.690;23.322;2023-08-31T02:25:00;94611.06;;;19.72;63.65
47763;BME280;33526;42.690;23.322;2023-08-31T02:27:26;94616.66;;;19.77;63.41
47763;BME280;33526;42.690;23.322;2023-08-31T02:29:51;94601.38;;;19.80;63.24
47763;BME280;33526;42.690;23.322;2023-08-31T02:32:16;94609.34;;;19.82;62.86
47763;BME280;33526;42.690;23.322;2023-08-31T02:34:42;94610.09;;;19.82;63.09
47763;BME280;33526;42.690;23.322;2023-08-31T02:37:07;94609.56;;;19.84;63.05
47763;BME280;33526;42.690;23.322;2023-08-31T02:39:32;94611.66;;;19.83;63.07
47763;BME280;33526;42.690;23.322;2023-08-31T02:41:57;94604.75;;;19.79;63.58
47763;BME280;33526;42.690;23.322;2023-08-31T02:44:23;94617.09;;;19.81;63.36
47763;BME280;33526;42.690;23.322;2023-08-31T02:46:48;94611.00;;;19.77;63.85
47763;BME280;33526;42.690;23.322;2023-08-31T02:49:13;94610.75;;;19.75;64.05
47763;BME280;33526;42.690;23.322;2023-08-31T02:51:39;94614.91;;;19.74;63.85
47763;BME280;33526;42.690;23.322;2023-08-31T02:54:04;94618.34;;;19.67;63.94
47763;BME280;33526;42.690;23.322;2023-08-31T02:56:29;94616.75;;;19.72;64.14
47763;BME280;33526;42.690;23.322;2023-08-31T02:58:55;94620.34;;;19.72;64.06
47763;BME280;33526;42.690;23.322;2023-08-31T03:01:20;94625.00;;;19.70;63.88
47763;BME280;33526;42.690;23.322;2023-08-31T03:03:45;94636.41;;;19.51;64.35
47763;BME280;33526;42.690;23.322;2023-08-31T03:06:11;94640.53;;;19.49;64.60
47763;BME280;33526;42.690;23.322;2023-08-31T03:08:37;94642.47;;;19.41;64.51
47763;BME280;33526;42.690;23.322;2023-08-31T03:11:03;94638.00;;;19.46;64.39
47763;BME280;33526;42.690;23.322;2023-08-31T03:13:28;94643.31;;;19.36;64.32
47763;BME280;33526;42.690;23.322;2023-08-31T03:15:54;94645.75;;;19.45;64.52
47763;BME280;33526;42.690;23.322;2023-08-31T03:18:21;94642.69;;;19.43;63.81
47763;BME280;33526;42.690;23.322;2023-08-31T03:20:46;94643.44;;;19.44;63.67
47763;BME280;33526;42.690;23.322;2023-08-31T03:23:11;94643.31;;;19.36;63.42
47763;BME280;33526;42.690;23.322;2023-08-31T03:25:37;94642.25;;;19.39;63.32
47763;BME280;33526;42.690;23.322;2023-08-31T03:28:02;94639.84;;;19.43;63.19
47763;BME280;33526;42.690;23.322;2023-08-31T03:30:28;94645.97;;;19.47;63.38
47763;BME280;33526;42.690;23.322;2023-08-31T03:32:53;94637.47;;;19.47;64.57
47763;BME280;33526;42.690;23.322;2023-08-31T03:35:19;94633.97;;;19.41;65.10
47763;BME280;33526;42.690;23.322;2023-08-31T03:37:46;94643.44;;;19.44;65.65
47763;BME280;33526;42.690;23.322;2023-08-31T03:40:12;94642.25;;;19.39;65.06
47763;BME280;33526;42.690;23.322;2023-08-31T03:42:37;94648.97;;;19.36;65.04
47763;BME280;33526;42.690;23.322;2023-08-31T03:45:02;94660.84;;;19.35;65.36
47763;BME280;33526;42.690;23.322;2023-08-31T03:47:28;94660.31;;;19.36;65.35
47763;BME280;33526;42.690;23.322;2023-08-31T03:49:54;94661.41;;;19.14;67.06
47763;BME280;33526;42.690;23.322;2023-08-31T03:52:19;94664.66;;;18.99;69.61
47763;BME280;33526;42.690;23.322;2023-08-31T03:54:44;94660.78;;;18.78;70.48
47763;BME280;33526;42.690;23.322;2023-08-31T03:57:10;94671.19;;;18.69;71.57
47763;BME280;33526;42.690;23.322;2023-08-31T03:59:35;94674.03;;;18.69;72.00
47763;BME280;33526;42.690;23.322;2023-08-31T04:02:00;94673.53;;;18.65;72.71
47763;BME280;33526;42.690;23.322;2023-08-31T04:04:25;94681.25;;;18.46;73.81
47763;BME280;33526;42.690;23.322;2023-08-31T04:06:51;94692.25;;;18.49;74.39
47763;BME280;33526;42.690;23.322;2023-08-31T04:09:16;94701.16;;;18.34;74.75
47763;BME280;33526;42.690;23.322;2023-08-31T04:11:42;94714.00;;;18.36;75.25
47763;BME280;33526;42.690;23.322;2023-08-31T04:14:07;94711.41;;;18.38;75.15
47763;BME280;33526;42.690;23.322;2023-08-31T04:16:32;94716.59;;;18.33;75.48
47763;BME280;33526;42.690;23.322;2023-08-31T04:18:58;94722.63;;;18.24;76.02
47763;BME280;33526;42.690;23.322;2023-08-31T04:21:23;94711.25;;;18.30;75.84
47763;BME280;33526;42.690;23.322;2023-08-31T04:23:49;94724.44;;;18.46;75.11
47763;BME280;33526;42.690;23.322;2023-08-31T04:26:14;94729.22;;;18.57;74.95
47763;BME280;33526;42.690;23.322;2023-08-31T04:28:40;94730.88;;;18.71;73.90
47763;BME280;33526;42.690;23.322;2023-08-31T04:31:06;94730.00;;;18.58;74.17
47763;BME280;33526;42.690;23.322;2023-08-31T04:33:33;94730.13;;;18.71;73.78
47763;BME280;33526;42.690;23.322;2023-08-31T04:35:59;94722.16;;;18.94;73.26
47763;BME280;33526;42.690;23.322;2023-08-31T04:38:24;94728.53;;;19.19;71.49
47763;BME280;33526;42.690;23.322;2023-08-31T04:40:49;94722.19;;;19.51;69.74
47763;BME280;33526;42.690;23.322;2023-08-31T04:45:40;94724.97;;;20.08;67.75
47763;BME280;33526;42.690;23.322;2023-08-31T04:48:05;94733.25;;;20.38;66.14
47763;BME280;33526;42.690;23.322;2023-08-31T04:50:31;94734.81;;;20.53;64.56
47763;BME280;33526;42.690;23.322;2023-08-31T04:52:56;94743.44;;;20.60;63.99
47763;BME280;33526;42.690;23.322;2023-08-31T04:55:21;94741.53;;;20.82;63.55
47763;BME280;33526;42.690;23.322;2023-08-31T04:57:47;94731.69;;;20.83;63.53
47763;BME280;33526;42.690;23.322;2023-08-31T05:00:12;94739.47;;;20.96;63.00
47763;BME280;33526;42.690;23.322;2023-08-31T05:02:38;94727.44;;;21.03;62.24
47763;BME280;33526;42.690;23.322;2023-08-31T05:05:04;94732.69;;;21.12;62.09
47763;BME280;33526;42.690;23.322;2023-08-31T05:07:30;94741.19;;;21.26;61.91
47763;BME280;33526;42.690;23.322;2023-08-31T05:09:55;94737.44;;;21.57;60.29
47763;BME280;33526;42.690;23.322;2023-08-31T05:12:21;94737.13;;;21.48;60.63
47763;BME280;33526;42.690;23.322;2023-08-31T05:14:47;94744.13;;;21.47;61.05
47763;BME280;33526;42.690;23.322;2023-08-31T05:17:12;94750.13;;;21.56;60.67
47763;BME280;33526;42.690;23.322;2023-08-31T05:19:38;94748.28;;;21.93;59.79
47763;BME280;33526;42.690;23.322;2023-08-31T05:22:05;94746.13;;;22.07;59.11
47763;BME280;33526;42.690;23.322;2023-08-31T05:24:31;94753.50;;;22.24;57.55
47763;BME280;33526;42.690;23.322;2023-08-31T05:26:57;94744.75;;;22.22;57.47
47763;BME280;33526;42.690;23.322;2023-08-31T05:29:22;94743.38;;;22.15;56.98
47763;BME280;33526;42.690;23.322;2023-08-31T05:31:48;94744.81;;;22.08;57.09
47763;BME280;33526;42.690;23.322;2023-08-31T05:34:20;94742.09;;;22.03;56.52
47763;BME280;33526;42.690;23.322;2023-08-31T05:36:51;94736.56;;;21.97;56.78
47763;BME280;33526;42.690;23.322;2023-08-31T05:39:17;94737.78;;;21.88;55.95
47763;BME280;33526;42.690;23.322;2023-08-31T05:41:48;94739.94;;;21.61;55.86
47763;BME280;33526;42.690;23.322;2023-08-31T05:44:14;94738.22;;;21.31;58.81
47763;BME280;33526;42.690;23.322;2023-08-31T05:46:40;94749.38;;;21.29;60.28
47763;BME280;33526;42.690;23.322;2023-08-31T05:49:09;94738.25;;;21.18;60.85
47763;BME280;33526;42.690;23.322;2023-08-31T05:51:37;94745.91;;;21.23;61.08
47763;BME280;33526;42.690;23.322;2023-08-31T05:54:02;94742.28;;;21.36;60.54
47763;BME280;33526;42.690;23.322;2023-08-31T05:56:32;94737.13;;;21.48;60.61
47763;BME280;33526;42.690;23.322;2023-08-31T05:58:58;94739.69;;;21.72;59.56
47763;BME280;33526;42.690;23.322;2023-08-31T06:01:23;94739.34;;;21.76;59.30
47763;BME280;33526;42.690;23.322;2023-08-31T06:03:48;94743.34;;;21.94;59.15
47763;BME280;33526;42.690;23.322;2023-08-31T06:06:14;94743.53;;;21.96;58.40
47763;BME280;33526;42.690;23.322;2023-08-31T06:08:39;94752.50;;;22.00;58.22
47763;BME280;33526;42.690;23.322;2023-08-31T06:11:10;94756.53;;;21.70;57.93
47763;BME280;33526;42.690;23.322;2023-08-31T06:13:45;94761.56;;;21.77;57.06
47763;BME280;33526;42.690;23.322;2023-08-31T06:16:11;94751.41;;;21.69;57.77
47763;BME280;33526;42.690;23.322;2023-08-31T06:18:39;94762.03;;;21.68;57.59
47763;BME280;33526;42.690;23.322;2023-08-31T06:21:05;94767.75;;;21.89;57.46
47763;BME280;33526;42.690;23.322;2023-08-31T06:23:30;94772.97;;;21.64;56.82
47763;BME280;33526;42.690;23.322;2023-08-31T06:25:56;94763.66;;;21.77;57.52
47763;BME280;33526;42.690;23.322;2023-08-31T06:28:21;94768.09;;;21.86;56.03
47763;BME280;33526;42.690;23.322;2023-08-31T06:30:46;94771.59;;;21.79;56.38
47763;BME280;33526;42.690;23.322;2023-08-31T06:33:15;94778.66;;;21.64;56.82
47763;BME280;33526;42.690;23.322;2023-08-31T06:35:40;94784.78;;;21.42;57.74
47763;BME280;33526;42.690;23.322;2023-08-31T06:38:06;94787.41;;;21.66;57.21
47763;BME280;33526;42.690;23.322;2023-08-31T06:40:31;94794.84;;;21.43;56.24
47763;BME280;33526;42.690;23.322;2023-08-31T06:42:56;94782.81;;;21.63;55.90
47763;BME280;33526;42.690;23.322;2023-08-31T06:45:22;94792.47;;;21.47;56.30
47763;BME280;33526;42.690;23.322;2023-08-31T06:47:47;94786.25;;;21.48;56.69
47763;BME280;33526;42.690;23.322;2023-08-31T06:50:12;94797.59;;;21.35;56.98
47763;BME280;33526;42.690;23.322;2023-08-31T06:52:38;94788.97;;;21.54;57.18
47763;BME280;33526;42.690;23.322;2023-08-31T06:55:03;94789.53;;;21.87;55.41
47763;BME280;33526;42.690;23.322;2023-08-31T06:57:28;94785.13;;;21.99;55.26
47763;BME280;33526;42.690;23.322;2023-08-31T06:59:54;94792.78;;;22.04;54.63
47763;BME280;33526;42.690;23.322;2023-08-31T07:02:19;94796.25;;;22.10;54.60
47763;BME280;33526;42.690;23.322;2023-08-31T07:04:47;94785.88;;;22.34;53.24
47763;BME280;33526;42.690;23.322;2023-08-31T07:07:13;94793.53;;;22.39;53.29
47763;BME280;33526;42.690;23.322;2023-08-31T07:09:39;94795.44;;;22.02;55.21
47763;BME280;33526;42.690;23.322;2023-08-31T07:12:05;94803.00;;;22.21;54.86
47763;BME280;33526;42.690;23.322;2023-08-31T07:14:30;94795.44;;;22.37;54.31
47763;BME280;33526;42.690;23.322;2023-08-31T07:16:56;94788.41;;;22.59;53.25
47763;BME280;33526;42.690;23.322;2023-08-31T07:19:21;94794.25;;;22.53;52.85
47763;BME280;33526;42.690;23.322;2023-08-31T07:21:46;94796.13;;;22.29;53.43
47763;BME280;33526;42.690;23.322;2023-08-31T07:24:13;94806.28;;;22.25;53.38
47763;BME280;33526;42.690;23.322;2023-08-31T07:26:38;94802.97;;;22.34;53.56
47763;BME280;33526;42.690;23.322;2023-08-31T07:29:03;94804.09;;;22.52;52.95
47763;BME280;33526;42.690;23.322;2023-08-31T07:31:29;94792.69;;;22.73;52.07
47763;BME280;33526;42.690;23.322;2023-08-31T07:33:54;94796.28;;;22.95;51.36
47763;BME280;33526;42.690;23.322;2023-08-31T07:36:20;94803.16;;;22.99;51.10
47763;BME280;33526;42.690;23.322;2023-08-31T07:38:45;94801.53;;;22.62;52.68
47763;BME280;33526;42.690;23.322;2023-08-31T07:41:10;94798.94;;;22.71;52.62
47763;BME280;33526;42.690;23.322;2023-08-31T07:43:36;94796.25;;;22.87;52.50
47763;BME280;33526;42.690;23.322;2023-08-31T07:46:01;94804.28;;;22.96;52.44
47763;BME280;33526;42.690;23.322;2023-08-31T07:48:26;94797.03;;;22.95;51.72
47763;BME280;33526;42.690;23.322;2023-08-31T07:50:52;94811.28;;;23.16;51.56
47763;BME280;33526;42.690;23.322;2023-08-31T07:53:17;94806.75;;;23.21;51.37
47763;BME280;33526;42.690;23.322;2023-08-31T07:55:50;94801.84;;;23.21;50.57
47763;BME280;33526;42.690;23.322;2023-08-31T07:58:15;94810.28;;;23.35;50.61
47763;BME280;33526;42.690;23.322;2023-08-31T08:00:40;94813.78;;;23.48;49.56
47763;BME280;33526;42.690;23.322;2023-08-31T08:03:06;94809.66;;;23.57;48.94
47763;BME280;33526;42.690;23.322;2023-08-31T08:05:31;94809.59;;;23.50;49.07
47763;BME280;33526;42.690;23.322;2023-08-31T08:07:56;94808.19;;;23.72;48.59
47763;BME280;33526;42.690;23.322;2023-08-31T08:10:22;94800.16;;;24.07;47.97
47763;BME280;33526;42.690;23.322;2023-08-31T08:12:47;94802.72;;;24.41;45.85
47763;BME280;33526;42.690;23.322;2023-08-31T08:15:12;94795.88;;;24.52;42.40
47763;BME280;33526;42.690;23.322;2023-08-31T08:17:38;94800.06;;;24.35;44.74
47763;BME280;33526;42.690;23.322;2023-08-31T08:20:03;94800.88;;;24.67;43.40
47763;BME280;33526;42.690;23.322;2023-08-31T08:22:29;94800.88;;;24.90;43.12
47763;BME280;33526;42.690;23.322;2023-08-31T08:24:54;94814.81;;;25.09;41.25
47763;BME280;33526;42.690;23.322;2023-08-31T08:27:19;94802.41;;;25.06;41.57
47763;BME280;33526;42.690;23.322;2023-08-31T08:29:45;94798.78;;;25.29;41.45
47763;BME280;33526;42.690;23.322;2023-08-31T08:32:11;94793.22;;;25.38;41.17
47763;BME280;33526;42.690;23.322;2023-08-31T08:34:37;94798.75;;;25.44;41.45
47763;BME280;33526;42.690;23.322;2023-08-31T08:37:02;94792.84;;;25.42;40.26
47763;BME280;33526;42.690;23.322;2023-08-31T08:39:30;94797.44;;;25.37;39.08
47763;BME280;33526;42.690;23.322;2023-08-31T08:41:57;94802.00;;;25.48;38.54
47763;BME280;33526;42.690;23.322;2023-08-31T08:44:22;94801.94;;;25.64;38.00
47763;BME280;33526;42.690;23.322;2023-08-31T08:46:50;94792.72;;;25.88;37.00
47763;BME280;33526;42.690;23.322;2023-08-31T08:49:16;94794.19;;;26.05;36.03
47763;BME280;33526;42.690;23.322;2023-08-31T08:51:43;94797.63;;;26.11;36.22
47763;BME280;33526;42.690;23.322;2023-08-31T08:54:08;94786.47;;;26.23;35.10
47763;BME280;33526;42.690;23.322;2023-08-31T08:56:34;94802.09;;;26.29;34.76
47763;BME280;33526;42.690;23.322;2023-08-31T08:58:59;94791.09;;;26.10;34.33
47763;BME280;33526;42.690;23.322;2023-08-31T09:01:25;94803.66;;;26.23;34.42
47763;BME280;33526;42.690;23.322;2023-08-31T09:03:51;94800.22;;;26.24;34.80
47763;BME280;33526;42.690;23.322;2023-08-31T09:06:16;94802.44;;;26.33;34.37
47763;BME280;33526;42.690;23.322;2023-08-31T09:08:41;94796.53;;;26.31;33.68
47763;BME280;33526;42.690;23.322;2023-08-31T09:11:07;94801.47;;;26.39;33.72
47763;BME280;33526;42.690;23.322;2023-08-31T09:13:32;94806.63;;;26.32;34.34
47763;BME280;33526;42.690;23.322;2023-08-31T09:15:58;94793.31;;;26.27;35.36
47763;BME280;33526;42.690;23.322;2023-08-31T09:18:25;94796.13;;;25.94;35.71
47763;BME280;33526;42.690;23.322;2023-08-31T09:20:50;94797.06;;;26.05;35.63
47763;BME280;33526;42.690;23.322;2023-08-31T09:23:16;94802.53;;;26.18;35.90
47763;BME280;33526;42.690;23.322;2023-08-31T09:25:46;94791.59;;;26.24;35.86
47763;BME280;33526;42.690;23.322;2023-08-31T09:28:13;94792.06;;;26.13;36.37
47763;BME280;33526;42.690;23.322;2023-08-31T09:30:39;94805.13;;;26.31;35.76
47763;BME280;33526;42.690;23.322;2023-08-31T09:33:06;94800.09;;;26.40;35.21
47763;BME280;33526;42.690;23.322;2023-08-31T09:35:31;94791.50;;;26.40;35.42
47763;BME280;33526;42.690;23.322;2023-08-31T09:37:57;94799.03;;;26.60;35.77
47763;BME280;33526;42.690;23.322;2023-08-31T09:40:22;94793.09;;;26.66;35.16
47763;BME280;33526;42.690;23.322;2023-08-31T09:42:49;94793.09;;;26.66;35.27
47763;BME280;33526;42.690;23.322;2023-08-31T09:45:16;94791.69;;;26.75;35.55
47763;BME280;33526;42.690;23.322;2023-08-31T09:47:42;94783.91;;;26.67;35.33
47763;BME280;33526;42.690;23.322;2023-08-31T09:50:08;94793.84;;;26.66;35.23
47763;BME280;33526;42.690;23.322;2023-08-31T09:52:33;94791.34;;;26.38;36.04
47763;BME280;33526;42.690;23.322;2023-08-31T09:54:59;94785.75;;;26.15;35.81
47763;BME280;33526;42.690;23.322;2023-08-31T09:57:26;94789.63;;;26.02;35.20
47763;BME280;33526;42.690;23.322;2023-08-31T09:59:52;94798.00;;;26.07;35.60
47763;BME280;33526;42.690;23.322;2023-08-31T10:02:18;94793.34;;;26.20;35.24
47763;BME280;33526;42.690;23.322;2023-08-31T10:04:43;94793.22;;;26.43;33.86
47763;BME280;33526;42.690;23.322;2023-08-31T10:07:09;94781.97;;;26.37;33.14
47763;BME280;33526;42.690;23.322;2023-08-31T10:09:36;94788.84;;;26.42;33.49
47763;BME280;33526;42.690;23.322;2023-08-31T10:12:03;94795.44;;;26.52;33.00
47763;BME280;33526;42.690;23.322;2023-08-31T10:14:29;94784.22;;;26.46;32.82
47763;BME280;33526;42.690;23.322;2023-08-31T10:16:54;94790.41;;;26.68;32.95
47763;BME280;33526;42.690;23.322;2023-08-31T10:19:21;94776.13;;;26.27;32.77
47763;BME280;33526;42.690;23.322;2023-08-31T10:21:46;94776.47;;;25.99;32.29
47763;BME280;33526;42.690;23.322;2023-08-31T10:24:11;94778.09;;;26.17;32.45
47763;BME280;33526;42.690;23.322;2023-08-31T10:26:36;94782.06;;;26.55;31.67
47763;BME280;33526;42.690;23.322;2023-08-31T10:29:02;94784.69;;;26.60;31.60
47763;BME280;33526;42.690;23.322;2023-08-31T10:31:30;94773.94;;;26.68;32.36
47763;BME280;33526;42.690;23.322;2023-08-31T10:33:59;94782.81;;;26.55;32.41
47763;BME280;33526;42.690;23.322;2023-08-31T10:36:35;94779.06;;;26.45;33.34
47763;BME280;33526;42.690;23.322;2023-08-31T10:39:04;94781.13;;;26.85;32.50
47763;BME280;33526;42.690;23.322;2023-08-31T10:41:33;94787.53;;;26.93;32.71
47763;BME280;33526;42.690;23.322;2023-08-31T10:43:58;94796.88;;;27.19;32.62
47763;BME280;33526;42.690;23.322;2023-08-31T10:46:25;94789.63;;;27.18;32.91
47763;BME280;33526;42.690;23.322;2023-08-31T10:48:54;94786.03;;;27.35;32.71
47763;BME280;33526;42.690;23.322;2023-08-31T10:51:24;94786.13;;;27.79;32.24
47763;BME280;33526;42.690;23.322;2023-08-31T10:53:50;94786.03;;;27.87;32.17
47763;BME280;33526;42.690;23.322;2023-08-31T10:56:16;94783.41;;;27.64;32.38
47763;BME280;33526;42.690;23.322;2023-08-31T10:58:41;94786.91;;;27.62;32.50
47763;BME280;33526;42.690;23.322;2023-08-31T11:01:07;94784.28;;;27.57;32.86
47763;BME280;33526;42.690;23.322;2023-08-31T11:03:32;94786.81;;;27.70;32.98
47763;BME280;33526;42.690;23.322;2023-08-31T11:05:57;94791.13;;;27.96;32.99
47763;BME280;33526;42.690;23.322;2023-08-31T11:08:23;94792.88;;;27.74;33.55
47763;BME280;33526;42.690;23.322;2023-08-31T11:10:49;94799.81;;;27.71;33.60
47763;BME280;33526;42.690;23.322;2023-08-31T11:13:18;94797.88;;;27.39;33.67
47763;BME280;33526;42.690;23.322;2023-08-31T11:15:47;94755.88;;;27.08;33.96
47763;BME280;33526;42.690;23.322;2023-08-31T11:18:12;94789.84;;;27.55;33.89
47763;BME280;33526;42.690;23.322;2023-08-31T11:20:41;94786.81;;;27.70;33.25
47763;BME280;33526;42.690;23.322;2023-08-31T11:23:07;94785.88;;;27.68;33.75
47763;BME280;33526;42.690;23.322;2023-08-31T11:25:32;94788.09;;;27.59;33.40
47763;BME280;33526;42.690;23.322;2023-08-31T11:28:01;94789.84;;;27.90;32.92
47763;BME280;33526;42.690;23.322;2023-08-31T11:30:29;94796.94;;;27.89;32.82
47763;BME280;33526;42.690;23.322;2023-08-31T11:33:04;94803.13;;;28.02;32.20
47763;BME280;33526;42.690;23.322;2023-08-31T11:35:34;94794.19;;;27.98;32.06
47763;BME280;33526;42.690;23.322;2023-08-31T11:38:00;94795.78;;;28.09;32.31
47763;BME280;33526;42.690;23.322;2023-08-31T11:40:28;94799.63;;;27.87;32.39
47763;BME280;33526;42.690;23.322;2023-08-31T11:42:54;94781.41;;;28.09;32.22
47763;BME280;33526;42.690;23.322;2023-08-31T11:45:19;94785.09;;;28.19;33.18
47763;BME280;33526;42.690;23.322;2023-08-31T11:47:45;94782.84;;;27.83;34.65
47763;BME280;33526;42.690;23.322;2023-08-31T11:50:12;94783.13;;;27.95;34.32
47763;BME280;33526;42.690;23.322;2023-08-31T11:52:39;94788.66;;;27.40;35.82
47763;BME280;33526;42.690;23.322;2023-08-31T11:55:15;94777.88;;;27.49;35.30
47763;BME280;33526;42.690;23.322;2023-08-31T11:57:48;94786.28;;;27.29;35.69
47763;BME280;33526;42.690;23.322;2023-08-31T12:00:13;94792.38;;;27.51;35.67
47763;BME280;33526;42.690;23.322;2023-08-31T12:02:41;94776.84;;;27.36;35.43
47763;BME280;33526;42.690;23.322;2023-08-31T12:05:06;94781.91;;;27.28;35.65
47763;BME280;33526;42.690;23.322;2023-08-31T12:07:32;94784.38;;;27.06;36.13
47763;BME280;33526;42.690;23.322;2023-08-31T12:10:04;94779.78;;;26.53;36.70
47763;BME280;33526;42.690;23.322;2023-08-31T12:12:30;94763.84;;;26.67;36.27
47763;BME280;33526;42.690;23.322;2023-08-31T12:14:57;94779.88;;;26.70;36.25
47763;BME280;33526;42.690;23.322;2023-08-31T12:17:26;94780.94;;;26.50;36.34
47763;BME280;33526;42.690;23.322;2023-08-31T12:19:51;94777.78;;;26.71;35.86
47763;BME280;33526;42.690;23.322;2023-08-31T12:22:16;94782.69;;;26.78;35.95
47763;BME280;33526;42.690;23.322;2023-08-31T12:24:47;94763.75;;;27.00;35.60
47763;BME280;33526;42.690;23.322;2023-08-31T12:27:12;94753.03;;;27.01;35.72
47763;BME280;33526;42.690;23.322;2023-08-31T12:29:37;94758.28;;;27.37;35.29
47763;BME280;33526;42.690;23.322;2023-08-31T12:32:03;94759.28;;;27.32;35.47
47763;BME280;33526;42.690;23.322;2023-08-31T12:34:30;94761.41;;;27.49;35.32
47763;BME280;33526;42.690;23.322;2023-08-31T12:36:58;94772.47;;;27.53;35.53
47763;BME280;33526;42.690;23.322;2023-08-31T12:39:27;94765.38;;;27.11;35.66
47763;BME280;33526;42.690;23.322;2023-08-31T12:41:52;94773.06;;;27.26;35.42
47763;BME280;33526;42.690;23.322;2023-08-31T12:44:17;94765.50;;;27.21;35.17
47763;BME280;33526;42.690;23.322;2023-08-31T12:46:43;94765.63;;;27.31;35.13
47763;BME280;33526;42.690;23.322;2023-08-31T12:49:08;94767.56;;;27.45;35.01
47763;BME280;33526;42.690;23.322;2023-08-31T12:51:33;94762.66;;;27.38;35.36
47763;BME280;33526;42.690;23.322;2023-08-31T12:53:58;94766.53;;;27.33;35.12